首页
METAR-TAF:

METAR-TAF

机场 :

贝鲁特, 黎巴嫩

纬度: 33-49N, 经度: 035-29E, 海拔: 29米

当前天气观测

该预报发布于11分钟前的14:00 UTC
风速3节,风向
温度 22°C
湿度 60%
气压 1022 hPa
能見度: 8000
少量云层高于2700英尺
多云层高于20000英尺

METAR: OLBA 201400Z 19003KT 8000 FEW027 BKN200 22/14 Q1022 NOSIG

时间: 16:11 (14:11 UTC)

预报

该预报发布于10小时和11分钟前的04:00 UTC
预报有效从20日的 06点(UTC)到 21日的 12点(UTC)
风速8节,风向南转西南
能见度10公里或以上
少量云层高于2600英尺
成为
从 20日的 09点(UTC)到 20日的 12点(UTC)
能見度: 8000
散云层高于18000英尺
成为
从 20日的 18点(UTC)到 20日的 21点(UTC)
风速2节,风向多变
成为
从 21日的 06点(UTC)到 21日的 09点(UTC)
风速8节,风向西南
能見度: 7000
散云层高于8000英尺
散云层高于18000英尺

TAF: OLBA 200400Z 2006/2112 20008KT 9999 FEW026 BECMG 2009/2012 22008T 8000 SCT180 BECMG 2018/2021 VRB02KT BECMG 2106/2109 23008KT 7000 SCT080 SCT180

超过4000个机场的气象观测和天气预报(METAR&TAF报告)。

可查询的气象台以黄色和红色小点在地图上表示。

将鼠标移到小点上方,可查看气象台名称。

然后点击查看天气观测和预报。

如需切换地图:点击带黑十字的绿色按钮放大地图;点击带横线的绿色按钮缩小地图;或者点击绿色箭头查看邻近地区的地图。


METAR-TAF: